Time;durP1;ratioP1;P1;durP2;ratioP2;P2;SDS_P1;SDS_P2;PMS_P1;PMS_P2;Temp;Humidity;BMP_temperature;BMP_pressure;BME280_temperature;BME280_humidity;BME280_pressure;Samples;Min_cycle;Max_cycle;Signal;HPM_P1;HPM_P2
2022/06/01 00:00:29;;;;;;;15.60;12.77;;;;;;;16.39;92.07;100127.25;5012165;28;20034;-62
2022/06/01 00:02:56;;;;;;;15.38;12.20;;;;;;;16.40;92.21;100128.09;5016280;28;20088;-62
2022/06/01 00:05:22;;;;;;;14.38;12.13;;;;;;;16.30;92.20;100119.75;5016042;28;20038;-62
2022/06/01 00:07:49;;;;;;;17.52;14.13;;;;;;;16.34;92.33;100129.19;5016209;28;20042;-62
2022/06/01 00:10:15;;;;;;;15.63;12.93;;;;;;;16.35;92.02;100130.06;5016061;28;20467;-62
2022/06/01 00:12:42;;;;;;;14.00;12.32;;;;;;;16.35;91.97;100133.50;5015825;28;20126;-62
2022/06/01 00:15:09;;;;;;;17.35;13.80;;;;;;;16.35;91.95;100132.66;5015843;28;20053;-62
2022/06/01 00:17:35;;;;;;;15.75;12.82;;;;;;;16.34;92.05;100133.56;5014425;28;20427;-62
2022/06/01 00:20:01;;;;;;;16.20;13.38;;;;;;;16.33;92.18;100140.56;5015923;28;20041;-62
2022/06/01 00:22:26;;;;;;;17.27;13.35;;;;;;;16.32;92.00;100140.63;5015751;28;20091;-63
2022/06/01 00:24:52;;;;;;;19.30;13.52;;;;;;;16.28;91.92;100134.66;5015120;28;20538;-62
2022/06/01 00:27:18;;;;;;;18.27;13.43;;;;;;;16.29;92.19;100138.97;5014938;28;20029;-62
2022/06/01 00:29:44;;;;;;;15.23;12.02;;;;;;;16.31;92.14;100137.16;5015453;28;20105;-62
2022/06/01 00:32:13;;;;;;;15.90;12.98;;;;;;;16.13;91.98;100111.72;5015542;28;20065;-62
2022/06/01 00:34:39;;;;;;;21.25;13.98;;;;;;;16.29;91.75;100144.22;5015566;28;20022;-62
2022/06/01 00:37:06;;;;;;;15.98;13.60;;;;;;;16.27;92.10;100146.00;5015309;28;20026;-62
2022/06/01 00:39:31;;;;;;;19.98;13.38;;;;;;;16.27;92.20;100143.41;5015079;28;20030;-62
2022/06/01 00:42:17;;;;;;;17.90;13.52;;;;;;;16.14;92.03;100131.72;5015258;28;20153;-62
2022/06/01 00:44:43;;;;;;;17.52;12.77;;;;;;;16.12;91.75;100130.91;5015258;28;20061;-62
2022/06/01 00:47:10;;;;;;;15.18;12.80;;;;;;;16.12;91.71;100143.97;5015302;28;20034;-62
2022/06/01 00:49:38;;;;;;;15.15;12.85;;;;;;;16.17;91.82;100152.50;5015070;28;20423;-62
2022/06/01 00:52:05;;;;;;;16.00;14.23;;;;;;;16.15;91.61;100157.78;5015120;28;20067;-62
2022/06/01 00:54:31;;;;;;;15.90;13.63;;;;;;;16.14;91.74;100161.28;5015205;28;20034;-62
2022/06/01 00:57:00;;;;;;;15.18;12.38;;;;;;;16.12;91.86;100173.59;5014954;28;20087;-62
2022/06/01 00:59:33;;;;;;;15.27;12.73;;;;;;;16.09;91.78;100171.09;5015208;28;20030;-62
2022/06/01 01:01:59;;;;;;;18.70;13.77;;;;;;;16.09;92.08;100167.59;5015135;28;20037;-61
2022/06/01 01:04:26;;;;;;;15.57;13.15;;;;;;;15.77;91.92;100117.34;5014867;28;20124;-61
2022/06/01 01:06:52;;;;;;;16.88;13.95;;;;;;;16.09;92.14;100165.00;5014886;28;20120;-61
2022/06/01 01:09:18;;;;;;;17.20;14.10;;;;;;;16.02;92.39;100173.06;5015038;28;20049;-62
2022/06/01 01:11:51;;;;;;;17.67;14.32;;;;;;;16.02;92.30;100167.84;5014873;28;20374;-61
2022/06/01 01:14:21;;;;;;;16.55;14.60;;;;;;;16.00;92.66;100169.66;5014028;28;20091;-62
2022/06/01 01:16:48;;;;;;;16.30;14.25;;;;;;;16.01;92.62;100166.13;5013565;28;20080;-62
2022/06/01 01:19:36;;;;;;;19.55;14.95;;;;;;;15.70;92.63;100119.31;4995148;28;20023;-62
2022/06/01 01:22:22;;;;;;;19.08;14.35;;;;;;;15.99;93.18;100170.56;5013175;28;20478;-62
2022/06/01 01:25:16;;;;;;;18.27;14.60;;;;;;;15.99;93.04;100172.31;5014851;28;20026;-62
2022/06/01 01:27:46;;;;;;;22.00;15.90;;;;;;;15.97;93.03;100167.13;5014409;28;20022;-62
2022/06/01 01:30:38;;;;;;;16.20;14.07;;;;;;;15.98;92.71;100171.47;5014629;28;20033;-62
2022/06/01 01:33:14;;;;;;;17.98;15.48;;;;;;;15.96;92.74;100167.19;5014539;28;20041;-62
2022/06/01 01:35:42;;;;;;;17.98;15.68;;;;;;;15.98;92.66;100163.63;5014019;28;20109;-62
2022/06/01 01:38:32;;;;;;;17.73;15.02;;;;;;;15.89;92.04;100156.13;5014215;28;20084;-62
2022/06/01 01:41:27;;;;;;;16.10;14.50;;;;;;;15.98;92.57;100174.06;5013039;28;20383;-62
2022/06/01 01:44:02;;;;;;;17.88;14.57;;;;;;;15.97;92.65;100174.13;5012272;28;20041;-62
2022/06/01 01:46:29;;;;;;;17.25;14.75;;;;;;;15.68;92.24;100126.38;5014207;28;20025;-62
2022/06/01 01:48:55;;;;;;;17.52;15.52;;;;;;;15.95;92.65;100182.03;5014329;28;20021;-62
2022/06/01 01:51:23;;;;;;;18.02;14.88;;;;;;;15.65;92.40;100127.31;5014234;28;20497;-62
2022/06/01 01:53:49;;;;;;;19.25;15.63;;;;;;;15.95;92.37;100176.81;5014175;28;20025;-62
2022/06/01 01:56:29;;;;;;;18.95;15.65;;;;;;;15.97;92.49;100180.19;5013899;28;20578;-62
2022/06/01 01:59:24;;;;;;;16.05;14.35;;;;;;;15.65;92.38;100122.09;5013659;28;20037;-61
2022/06/01 02:01:59;;;;;;;19.70;15.57;;;;;;;15.97;92.24;100185.41;4982342;28;20172;-62
2022/06/01 02:07:32;;;;;;;17.83;15.07;;;;;;;15.85;92.33;100162.38;5014005;28;20121;-62
2022/06/01 02:12:42;;;;;;;15.95;13.85;;;;;;;15.96;92.05;100173.28;5013649;28;20387;-62
2022/06/01 02:15:22;;;;;;;16.77;14.73;;;;;;;15.68;91.87;100128.97;5013708;28;20022;-62
2022/06/01 02:17:54;;;;;;;18.73;16.25;;;;;;;15.59;92.33;100121.47;5013533;28;20105;-62
2022/06/01 02:20:32;;;;;;;18.05;15.85;;;;;;;15.91;92.27;100177.81;5012515;28;20033;-62
2022/06/01 02:22:59;;;;;;;18.48;15.70;;;;;;;15.94;91.82;100176.84;5028846;28;20026;-62
2022/06/01 02:25:25;;;;;;;17.90;13.95;;;;;;;15.86;91.82;100167.53;5013589;28;20079;-62
2022/06/01 02:27:54;;;;;;;18.20;15.95;;;;;;;15.86;91.98;100162.31;5012897;28;20029;-62
2022/06/01 02:30:33;;;;;;;16.70;14.95;;;;;;;15.60;92.15;100125.78;5012700;28;20061;-62
2022/06/01 02:33:00;;;;;;;17.75;15.88;;;;;;;15.62;91.97;100129.19;5013328;28;20080;-62
2022/06/01 02:35:29;;;;;;;21.17;15.48;;;;;;;15.90;91.76;100186.56;5013274;28;20034;-62
2022/06/01 02:37:58;;;;;;;18.13;15.63;;;;;;;15.63;91.64;100128.28;5013255;28;20379;-62
2022/06/01 02:40:25;;;;;;;16.35;14.75;;;;;;;16.04;91.31;100178.22;5013029;28;20036;-62
2022/06/01 02:42:52;;;;;;;18.25;16.17;;;;;;;16.14;90.73;100183.97;5012987;28;20026;-62
2022/06/01 02:45:21;;;;;;;15.82;14.23;;;;;;;16.18;90.58;100168.13;5013162;28;20068;-62
2022/06/01 02:47:48;;;;;;;17.95;15.68;;;;;;;16.34;90.33;100188.47;5012852;28;20030;-62
2022/06/01 02:50:17;;;;;;;20.27;15.63;;;;;;;16.01;89.52;100128.69;5012944;28;20475;-62
2022/06/01 02:52:44;;;;;;;14.18;12.88;;;;;;;16.32;89.70;100180.69;5013050;28;20045;-62
2022/06/01 02:55:11;;;;;;;16.90;14.50;;;;;;;16.28;89.62;100165.19;5012858;28;20022;-62
2022/06/01 02:57:38;;;;;;;19.08;15.05;;;;;;;16.39;89.37;100176.09;5012654;28;20045;-62
2022/06/01 03:00:07;;;;;;;17.45;15.35;;;;;;;16.42;89.63;100178.59;5012784;28;20026;-62
2022/06/01 03:02:34;;;;;;;17.42;14.85;;;;;;;16.18;89.26;100117.63;5012690;28;20391;-63
2022/06/01 03:05:00;;;;;;;18.52;15.02;;;;;;;16.56;88.34;100180.69;5012852;28;20037;-62
2022/06/01 03:07:26;;;;;;;13.68;11.93;;;;;;;16.61;88.10;100175.25;5012958;28;20127;-63
2022/06/01 03:09:51;;;;;;;16.23;13.80;;;;;;;16.64;88.31;100175.13;5012745;28;20022;-62
2022/06/01 03:12:17;;;;;;;15.43;13.88;;;;;;;16.68;87.70;100177.56;5012473;28;20072;-62
2022/06/01 03:14:43;;;;;;;13.43;12.02;;;;;;;16.82;87.23;100170.97;5012801;28;20030;-62
2022/06/01 03:17:08;;;;;;;15.27;13.60;;;;;;;16.96;86.89;100175.66;5011159;28;20033;-62
2022/06/01 03:19:34;;;;;;;15.20;12.85;;;;;;;17.13;86.77;100182.84;5012708;28;20028;-62
2022/06/01 03:22:01;;;;;;;15.82;12.15;;;;;;;17.16;86.17;100178.34;5012707;28;20117;-62
2022/06/01 03:24:27;;;;;;;16.65;12.95;;;;;;;17.12;85.98;100182.00;5012165;28;20022;-62
2022/06/01 03:26:52;;;;;;;13.15;11.88;;;;;;;17.17;85.39;100185.28;5011982;28;20422;-62
2022/06/01 03:29:18;;;;;;;11.35;9.75;;;;;;;17.27;84.94;100188.34;5012345;28;20048;-62
2022/06/01 03:31:43;;;;;;;11.80;10.65;;;;;;;17.65;84.11;100180.66;5012576;28;20416;-62
2022/06/01 03:34:10;;;;;;;11.55;10.35;;;;;;;18.00;82.55;100182.69;5012375;28;20092;-62
2022/06/01 03:36:36;;;;;;;10.48;9.38;;;;;;;18.00;81.21;100185.31;5011818;28;20062;-62
2022/06/01 03:39:02;;;;;;;9.65;8.70;;;;;;;18.05;78.71;100178.94;5011977;28;20499;-62
2022/06/01 03:41:28;;;;;;;9.52;8.63;;;;;;;18.14;79.41;100182.09;5012114;28;20022;-62
2022/06/01 03:46:39;;;;;;;9.38;8.13;;;;;;;18.09;79.73;100175.28;5012341;28;20399;-62
2022/06/01 03:49:05;;;;;;;8.60;7.70;;;;;;;18.17;80.01;100181.94;5011848;28;20030;-62
2022/06/01 03:51:31;;;;;;;9.05;8.15;;;;;;;18.22;79.82;100174.72;5010838;28;20026;-62
2022/06/01 03:53:56;;;;;;;9.80;8.05;;;;;;;18.27;79.81;100175.34;5011805;28;20030;-62
2022/06/01 03:56:23;;;;;;;13.43;7.97;;;;;;;18.22;79.98;100172.09;5011434;28;20034;-62
2022/06/01 03:58:51;;;;;;;7.38;6.68;;;;;;;18.18;79.67;100178.41;5012170;28;20026;-62
2022/06/01 04:01:18;;;;;;;11.63;7.22;;;;;;;18.23;79.72;100173.81;5012085;28;20062;-63
2022/06/01 04:03:45;;;;;;;8.43;6.78;;;;;;;18.31;78.49;100170.84;5010745;28;20054;-62
2022/06/01 04:06:11;;;;;;;8.25;7.28;;;;;;;18.34;78.52;100171.56;5012025;28;20145;-62
2022/06/01 04:08:36;;;;;;;8.73;7.28;;;;;;;18.40;79.26;100173.88;5011790;28;20471;-62
2022/06/01 04:11:02;;;;;;;8.18;6.45;;;;;;;18.39;78.12;100174.81;5012207;28;20372;-62
2022/06/01 04:13:29;;;;;;;8.27;7.55;;;;;;;18.46;78.97;100178.84;5011964;28;20025;-62
2022/06/01 04:15:54;;;;;;;10.57;7.07;;;;;;;18.46;79.70;100175.38;5012110;28;20105;-62
2022/06/01 04:18:20;;;;;;;7.70;6.70;;;;;;;18.56;78.94;100170.56;5011837;28;20117;-62
2022/06/01 04:20:48;;;;;;;9.55;6.82;;;;;;;18.63;78.76;100169.34;5011870;28;20159;-62
2022/06/01 04:23:14;;;;;;;8.13;7.07;;;;;;;18.62;78.14;100163.22;5011451;28;20076;-62
2022/06/01 04:25:40;;;;;;;8.85;6.20;;;;;;;18.53;75.96;100174.16;5012035;28;20109;-61
2022/06/01 04:28:05;;;;;;;7.78;5.80;;;;;;;18.65;74.91;100177.97;5011637;28;20028;-61
2022/06/01 04:30:32;;;;;;;7.30;6.68;;;;;;;18.79;75.45;100172.09;5010390;28;20467;-62
2022/06/01 04:32:58;;;;;;;8.68;6.70;;;;;;;18.92;75.81;100170.59;5011740;28;20022;-62
2022/06/01 04:35:25;;;;;;;7.68;6.68;;;;;;;18.72;75.06;100137.41;5011853;28;20348;-61
2022/06/01 04:37:51;;;;;;;10.90;6.30;;;;;;;19.00;74.43;100172.88;5011293;28;20028;-62
2022/06/01 04:40:19;;;;;;;7.10;6.28;;;;;;;19.03;74.83;100171.88;5011658;28;20105;-61
2022/06/01 04:42:45;;;;;;;6.70;5.72;;;;;;;19.05;74.65;100170.84;5011819;28;20064;-61
2022/06/01 04:45:12;;;;;;;6.63;5.18;;;;;;;18.92;73.95;100125.13;5011475;28;20444;-61
2022/06/01 04:47:38;;;;;;;6.90;5.07;;;;;;;19.25;73.35;100179.53;5011732;28;20101;-61
2022/06/01 04:50:05;;;;;;;5.60;4.85;;;;;;;19.42;72.16;100174.28;4994477;28;20132;-61
2022/06/01 04:52:32;;;;;;;6.18;4.90;;;;;;;19.53;72.04;100186.03;5019784;28;20082;-61
2022/06/01 04:54:57;;;;;;;6.80;5.85;;;;;;;19.66;72.52;100181.84;4999496;28;20030;-61
2022/06/01 04:57:23;;;;;;;6.45;5.13;;;;;;;19.62;71.50;100182.94;5006600;28;20026;-61
2022/06/01 04:59:48;;;;;;;6.55;4.90;;;;;;;19.80;70.76;100189.91;5014616;28;20443;-61
2022/06/01 05:02:15;;;;;;;5.93;4.97;;;;;;;19.98;70.37;100181.97;5014075;28;20037;-61
2022/06/01 05:04:40;;;;;;;5.70;5.07;;;;;;;20.08;70.89;100183.22;5014555;28;20054;-60
2022/06/01 05:07:07;;;;;;;6.13;5.00;;;;;;;20.01;70.65;100171.31;5013383;28;20095;-61
2022/06/01 05:09:32;;;;;;;5.55;5.05;;;;;;;20.15;70.89;100189.84;5014869;28;20046;-61
2022/06/01 05:11:58;;;;;;;4.97;4.47;;;;;;;20.27;69.98;100188.31;5014309;28;20095;-60
2022/06/01 05:14:24;;;;;;;6.30;5.10;;;;;;;20.18;69.21;100188.84;5014741;28;20071;-61
2022/06/01 05:16:49;;;;;;;7.13;5.20;;;;;;;20.15;69.34;100187.22;5014664;28;20026;-61
2022/06/01 05:19:15;;;;;;;9.43;5.40;;;;;;;20.34;68.55;100192.31;5013088;28;20028;-61
2022/06/01 05:21:40;;;;;;;6.53;5.38;;;;;;;20.44;69.15;100189.22;5014706;28;20096;-61
2022/06/01 05:24:07;;;;;;;8.30;5.60;;;;;;;20.54;69.65;100187.78;5014460;28;20034;-62
2022/06/01 05:26:33;;;;;;;8.25;5.22;;;;;;;20.65;69.15;100185.41;5013656;28;20029;-62
2022/06/01 05:28:58;;;;;;;9.50;5.65;;;;;;;20.70;69.43;100187.78;5014187;28;20029;-61
2022/06/01 05:31:24;;;;;;;6.82;4.60;;;;;;;20.85;68.41;100194.84;5011281;28;20014;-61
2022/06/01 05:33:50;;;;;;;6.75;5.68;;;;;;;20.76;67.19;100190.06;5014209;28;20088;-60
2022/06/01 05:36:16;;;;;;;10.45;5.50;;;;;;;20.71;67.28;100178.09;5014309;28;20126;-60
2022/06/01 05:38:42;;;;;;;9.48;6.10;;;;;;;20.69;65.42;100175.56;5013891;28;20077;-60
2022/06/01 05:41:26;;;;;;;8.40;5.07;;;;;;;20.83;67.21;100175.63;5014182;28;20105;-61
2022/06/01 05:43:53;;;;;;;5.82;4.85;;;;;;;20.89;66.94;100163.91;5014169;28;20033;-61
2022/06/01 05:46:19;;;;;;;5.97;4.65;;;;;;;21.01;66.97;100170.28;5014265;28;20125;-61
2022/06/01 05:48:45;;;;;;;7.40;4.47;;;;;;;21.03;64.83;100164.00;5013880;28;20496;-61
2022/06/01 05:51:10;;;;;;;6.32;4.60;;;;;;;21.03;64.53;100160.50;5013963;28;20387;-61
2022/06/01 05:53:36;;;;;;;7.80;3.55;;;;;;;21.02;59.51;100158.78;5013803;28;20467;-61
2022/06/01 05:56:02;;;;;;;3.85;3.53;;;;;;;21.15;60.34;100164.19;5013758;28;20072;-61
2022/06/01 05:58:28;;;;;;;6.70;3.40;;;;;;;20.83;57.75;100117.72;5013040;28;20076;-61
2022/06/01 06:00:59;;;;;;;2.88;2.67;;;;;;;21.14;57.88;100152.81;5013925;28;20391;-61
2022/06/01 06:03:26;;;;;;;3.53;2.72;;;;;;;21.21;55.49;100158.59;5013371;28;20499;-62
2022/06/01 06:08:37;;;;;;;4.28;2.47;;;;;;;21.36;56.04;100160.34;5013287;28;20026;-61
2022/06/01 06:11:03;;;;;;;4.18;2.53;;;;;;;21.42;56.95;100156.50;5012477;28;20399;-61
2022/06/01 06:13:29;;;;;;;6.20;2.88;;;;;;;21.28;54.76;100156.47;5013081;28;20038;-61
2022/06/01 06:15:54;;;;;;;4.28;2.60;;;;;;;21.18;52.77;100158.78;5013612;28;20063;-61
2022/06/01 06:18:20;;;;;;;2.35;2.10;;;;;;;21.51;54.75;100150.69;5014069;28;20041;-61
2022/06/01 06:20:45;;;;;;;5.13;2.70;;;;;;;21.62;55.80;100151.81;5013888;28;20017;-61
2022/06/01 06:23:12;;;;;;;3.33;2.70;;;;;;;21.69;56.88;100154.00;5014183;28;20030;-61
2022/06/01 06:25:38;;;;;;;3.63;2.47;;;;;;;21.70;53.36;100147.78;5014175;28;20490;-61
2022/06/01 06:28:05;;;;;;;3.33;2.40;;;;;;;21.69;52.86;100139.97;5013823;28;20168;-61
2022/06/01 06:30:30;;;;;;;4.38;2.65;;;;;;;21.82;53.71;100151.47;5013841;28;20045;-62
2022/06/01 06:32:56;;;;;;;5.57;2.88;;;;;;;21.92;55.24;100150.91;5013691;28;20033;-61
2022/06/01 06:35:21;;;;;;;7.32;2.95;;;;;;;21.94;57.15;100151.69;5013580;28;20026;-61
2022/06/01 06:37:47;;;;;;;4.38;2.30;;;;;;;21.82;52.52;100153.25;5013880;28;20054;-61
2022/06/01 06:40:14;;;;;;;3.40;2.40;;;;;;;21.84;49.55;100149.59;5014091;28;20109;-60
2022/06/01 06:42:40;;;;;;;6.70;3.33;;;;;;;22.04;53.54;100142.25;5013541;28;20471;-61
2022/06/01 06:45:06;;;;;;;3.75;2.60;;;;;;;22.05;50.24;100146.59;5013450;28;20037;-60
2022/06/01 06:47:32;;;;;;;2.78;2.53;;;;;;;22.11;53.75;100145.34;5013501;28;20466;-61
2022/06/01 06:50:00;;;;;;;5.75;2.55;;;;;;;21.90;53.11;100095.63;5013392;28;20022;-61
2022/06/01 06:52:26;;;;;;;7.38;2.60;;;;;;;22.33;53.15;100137.81;5013468;28;20058;-61
2022/06/01 06:54:52;;;;;;;3.90;2.50;;;;;;;22.37;52.01;100134.03;5013518;28;20030;-62
2022/06/01 06:57:17;;;;;;;3.75;2.20;;;;;;;22.33;50.49;100136.97;5013384;28;20146;-61
2022/06/01 06:59:43;;;;;;;4.50;2.60;;;;;;;22.53;52.94;100131.28;5012890;28;20076;-61
2022/06/01 07:02:10;;;;;;;5.60;2.25;;;;;;;22.53;52.51;100127.75;5013306;28;20356;-62
2022/06/01 07:04:36;;;;;;;3.67;2.33;;;;;;;22.61;51.89;100127.28;5013518;28;20057;-61
2022/06/01 07:07:02;;;;;;;3.05;2.55;;;;;;;22.69;52.60;100133.75;5013241;28;20042;-61
2022/06/01 07:09:28;;;;;;;4.22;2.90;;;;;;;22.78;52.56;100136.75;5012058;28;20106;-61
2022/06/01 07:11:54;;;;;;;4.93;2.88;;;;;;;22.91;52.57;100127.91;5011239;28;20026;-62
2022/06/01 07:14:19;;;;;;;2.40;2.10;;;;;;;22.98;49.74;100132.81;5012319;28;20029;-60
2022/06/01 07:16:45;;;;;;;4.25;2.70;;;;;;;23.05;51.78;100128.81;5012587;28;20021;-61
2022/06/01 07:19:11;;;;;;;3.70;2.70;;;;;;;23.13;50.52;100128.31;5012892;28;20033;-60
2022/06/01 07:21:36;;;;;;;3.42;2.30;;;;;;;23.10;49.18;100138.13;5012723;28;20021;-60
2022/06/01 07:24:06;;;;;;;3.53;2.55;;;;;;;23.12;50.14;100130.13;5012147;28;20033;-62
2022/06/01 07:26:35;;;;;;;6.50;3.35;;;;;;;23.09;51.11;100109.16;5013069;28;20555;-62
2022/06/01 07:29:01;;;;;;;4.65;2.92;;;;;;;23.32;50.54;100130.59;5012878;28;20573;-62
2022/06/01 07:31:28;;;;;;;3.67;2.05;;;;;;;23.26;49.24;100131.84;5012918;28;20030;-62
2022/06/01 07:33:53;;;;;;;3.25;2.00;;;;;;;23.30;48.72;100128.03;5011365;28;20487;-61
2022/06/01 07:36:20;;;;;;;6.20;2.40;;;;;;;23.34;47.16;100132.16;5012818;28;20109;-62
2022/06/01 07:44:29;;;;;;;6.50;3.15;;;;;;;23.66;50.06;100138.81;4971554;28;20415;-62
2022/06/01 07:46:55;;;;;;;2.50;2.30;;;;;;;23.74;49.55;100131.22;5013306;28;20036;-62
2022/06/01 07:49:21;;;;;;;3.58;1.95;;;;;;;23.74;49.35;100132.09;5012633;28;20030;-62
2022/06/01 07:51:50;;;;;;;5.05;2.30;;;;;;;23.82;48.69;100142.13;5012307;28;20100;-61
2022/06/01 07:54:16;;;;;;;3.75;2.40;;;;;;;23.81;50.01;100129.84;5012695;28;20033;-61
2022/06/01 07:56:42;;;;;;;6.15;2.85;;;;;;;23.53;48.10;100139.69;5012753;28;20038;-59
2022/06/01 07:59:08;;;;;;;3.30;2.30;;;;;;;23.18;46.61;100132.34;5012493;28;20037;-62
2022/06/01 08:01:34;;;;;;;5.97;2.88;;;;;;;23.33;48.94;100133.13;5012711;28;20026;-61
2022/06/01 08:04:03;;;;;;;6.93;2.85;;;;;;;23.42;49.74;100106.03;5012608;28;20046;-61
2022/06/01 08:06:30;;;;;;;8.27;3.05;;;;;;;23.61;49.42;100132.09;5012469;28;20037;-61
2022/06/01 08:08:56;;;;;;;9.18;3.20;;;;;;;23.76;49.08;100137.25;5007641;28;20038;-61
2022/06/01 08:14:13;;;;;;;4.07;1.92;;;;;;;23.71;43.75;100119.03;4984295;28;20434;-61
2022/06/01 08:16:40;;;;;;;2.05;1.83;;;;;;;23.81;43.61;100135.13;5012526;28;20057;-61
2022/06/01 08:19:07;;;;;;;5.90;2.50;;;;;;;23.77;43.66;100136.28;5010964;28;20109;-60
2022/06/01 08:21:34;;;;;;;3.92;3.15;;;;;;;23.68;44.89;100092.81;5012471;28;20101;-62
2022/06/01 08:24:01;;;;;;;3.00;1.98;;;;;;;24.09;45.72;100142.00;5016344;28;20021;-61
2022/06/01 08:26:27;;;;;;;4.70;2.17;;;;;;;24.11;45.13;100142.75;5016017;28;20472;-61
2022/06/01 08:28:52;;;;;;;3.95;2.17;;;;;;;24.05;43.99;100131.75;5015002;28;20132;-61
2022/06/01 08:31:18;;;;;;;4.95;2.15;;;;;;;24.22;45.94;100136.69;5015196;28;20026;-61
2022/06/01 08:33:43;;;;;;;5.00;2.10;;;;;;;24.30;45.04;100134.34;5015676;28;20415;-62
2022/06/01 08:36:09;;;;;;;6.03;2.13;;;;;;;24.40;45.76;100137.19;5015942;28;20030;-61
2022/06/01 08:38:35;;;;;;;7.18;2.25;;;;;;;24.56;47.48;100138.72;5016150;28;20025;-60
2022/06/01 08:41:01;;;;;;;5.22;2.22;;;;;;;24.56;46.21;100136.06;5005322;28;20088;-60
2022/06/01 08:43:31;;;;;;;3.47;2.60;;;;;;;24.58;45.68;100137.63;5013061;28;20042;-61
2022/06/01 08:46:00;;;;;;;4.27;2.63;;;;;;;24.55;46.21;100119.31;5016110;28;20475;-61
2022/06/01 08:48:41;;;;;;;5.40;2.80;;;;;;;24.38;44.18;100123.19;5015613;28;20022;-61
2022/06/01 08:51:07;;;;;;;14.57;11.10;;;;;;;24.53;44.39;100102.69;5016231;28;20449;-61
2022/06/01 08:53:34;;;;;;;4.18;2.83;;;;;;;24.92;46.80;100134.34;5014833;28;20077;-61
2022/06/01 08:56:10;;;;;;;7.22;2.80;;;;;;;24.72;44.14;100086.31;5015902;28;20438;-62
2022/06/01 08:58:59;;;;;;;3.95;2.80;;;;;;;25.07;43.68;100134.97;5015543;28;20041;-62
2022/06/01 09:01:43;;;;;;;3.22;2.78;;;;;;;24.89;44.41;100134.56;5015938;28;20483;-61
2022/06/01 09:04:46;;;;;;;3.00;2.70;;;;;;;24.83;43.65;100130.56;5015253;28;20042;-61
2022/06/01 09:07:26;;;;;;;5.20;2.50;;;;;;;24.85;43.74;100133.09;5015370;28;20057;-61
2022/06/01 09:10:19;;;;;;;3.85;2.97;;;;;;;24.76;43.54;100139.94;5015660;28;20034;-61
2022/06/01 09:12:47;;;;;;;7.78;2.47;;;;;;;24.64;43.56;100134.59;5015228;28;20027;-61
2022/06/01 09:15:23;;;;;;;7.30;2.35;;;;;;;24.57;43.13;100143.03;5015350;28;20101;-60
2022/06/01 09:17:49;;;;;;;4.22;2.42;;;;;;;24.53;44.16;100134.47;5015023;28;20032;-60
2022/06/01 09:23:07;;;;;;;6.93;3.15;;;;;;;24.75;46.36;100133.78;5015073;28;20099;-60
2022/06/01 09:25:35;;;;;;;3.83;2.53;;;;;;;24.60;45.35;100137.56;5014966;28;20026;-61
2022/06/01 09:28:26;;;;;;;5.25;2.70;;;;;;;24.44;45.97;100112.16;5014514;28;20026;-60
2022/06/01 09:31:18;;;;;;;9.05;3.05;;;;;;;24.54;45.30;100130.88;5014904;28;20037;-61
2022/06/01 09:33:44;;;;;;;6.32;2.83;;;;;;;24.68;45.39;100139.66;5014089;28;20196;-60
2022/06/01 09:36:10;;;;;;;4.97;3.08;;;;;;;24.51;44.46;100139.03;5015193;28;20104;-60
2022/06/01 09:38:51;;;;;;;6.95;3.00;;;;;;;24.60;45.78;100148.16;5014790;28;20025;-61
2022/06/01 09:41:21;;;;;;;4.88;3.38;;;;;;;24.63;45.20;100140.81;5014787;28;20109;-61
2022/06/01 09:43:54;;;;;;;5.03;2.92;;;;;;;24.84;44.83;100137.56;5014802;28;20476;-60
2022/06/01 09:46:56;;;;;;;8.43;2.97;;;;;;;24.96;45.36;100147.25;5014782;28;20038;-60
2022/06/01 09:49:29;;;;;;;6.55;3.47;;;;;;;24.46;44.02;100101.47;5014459;28;20064;-60
2022/06/01 09:52:02;;;;;;;6.38;3.35;;;;;;;24.71;45.50;100097.03;5015037;28;20029;-60
2022/06/01 09:54:34;;;;;;;4.95;3.10;;;;;;;24.77;44.80;100093.91;5013163;28;20041;-60
2022/06/01 09:57:22;;;;;;;;;;;;;;;24.77;45.58;100133.66;5015095;28;20034;-60
2022/06/01 10:08:23;;;;;;;6.70;3.40;;;;;;;24.91;46.89;100133.50;5014459;28;20034;-60
2022/06/01 10:11:25;;;;;;;7.78;4.07;;;;;;;24.56;47.62;100102.47;4994911;28;20038;-60
2022/06/01 10:13:54;;;;;;;5.50;3.60;;;;;;;24.89;47.33;100145.16;4994854;28;20514;-61
2022/06/01 10:16:47;;;;;;;4.43;4.03;;;;;;;24.78;47.35;100127.41;5011157;28;20034;-62
2022/06/01 10:19:17;;;;;;;4.78;3.55;;;;;;;24.85;48.05;100127.81;5014419;28;20037;-61
2022/06/01 10:21:55;;;;;;;7.00;3.38;;;;;;;24.87;49.66;100124.09;5014191;28;20506;-61
2022/06/01 10:24:28;;;;;;;5.70;3.90;;;;;;;24.61;48.33;100080.97;5014149;28;20357;-61
2022/06/01 10:26:58;;;;;;;6.35;3.63;;;;;;;24.73;48.83;100125.09;5013752;28;20033;-61
2022/06/01 10:30:05;;;;;;;7.63;3.65;;;;;;;24.66;48.28;100120.38;4997038;28;20104;-61
2022/06/01 10:32:50;;;;;;;8.38;3.88;;;;;;;24.58;48.43;100116.44;5005459;28;20038;-61
2022/06/01 10:35:34;;;;;;;7.13;3.95;;;;;;;24.38;48.89;100083.47;5013862;28;20033;-61
2022/06/01 10:38:18;;;;;;;5.22;3.83;;;;;;;24.63;49.30;100122.28;4993774;28;20112;-61
2022/06/01 10:40:54;;;;;;;4.30;2.63;;;;;;;24.57;44.27;100132.44;4994274;28;20026;-61
2022/06/01 10:43:20;;;;;;;5.43;2.65;;;;;;;24.68;45.11;100126.41;5009344;28;20437;-61
2022/06/01 10:45:50;;;;;;;5.28;2.47;;;;;;;24.46;44.68;100085.56;5013520;28;20042;-62
2022/06/01 10:48:23;;;;;;;4.03;2.03;;;;;;;24.10;45.45;100095.25;5013390;28;20033;-61
2022/06/01 10:51:02;;;;;;;5.65;2.95;;;;;;;24.29;45.87;100103.53;4998148;28;20387;-61
2022/06/01 10:53:37;;;;;;;16.60;4.45;;;;;;;24.29;46.84;100143.22;5011731;28;20580;-61
2022/06/01 10:56:03;;;;;;;7.13;2.60;;;;;;;24.51;47.36;100154.09;5013703;28;20076;-61
2022/06/01 10:58:29;;;;;;;6.88;2.92;;;;;;;24.45;47.06;100152.72;5013127;28;20554;-61
2022/06/01 11:01:01;;;;;;;6.10;3.40;;;;;;;24.73;47.74;100150.75;5013282;28;20088;-61
2022/06/01 11:03:29;;;;;;;8.55;2.85;;;;;;;24.86;47.46;100148.88;5013243;28;20180;-60
2022/06/01 11:06:13;;;;;;;6.13;3.10;;;;;;;24.66;47.97;100154.81;5013375;28;20498;-62
2022/06/01 11:09:18;;;;;;;3.63;2.75;;;;;;;24.16;48.61;100121.25;5013004;28;20558;-61
2022/06/01 11:11:55;;;;;;;10.18;3.35;;;;;;;24.45;48.79;100153.56;5013135;28;20030;-61
2022/06/01 11:14:55;;;;;;;6.32;3.72;;;;;;;24.22;48.74;100164.97;5013320;28;20117;-60
2022/06/01 11:17:52;;;;;;;6.72;2.90;;;;;;;24.20;49.84;100159.78;5012808;28;20026;-61
2022/06/01 11:20:40;;;;;;;8.80;3.53;;;;;;;24.43;49.78;100155.47;5012584;28;20057;-62
2022/06/01 11:23:37;;;;;;;6.63;3.22;;;;;;;23.94;49.64;100121.91;5012879;28;20798;-59
2022/06/01 11:26:30;;;;;;;3.47;2.85;;;;;;;23.72;51.16;100164.88;4982853;28;20038;-60
2022/06/01 11:29:18;;;;;;;5.07;2.70;;;;;;;23.70;51.37;100161.47;4993293;28;20096;-59
2022/06/01 11:31:49;;;;;;;6.10;3.00;;;;;;;23.74;52.33;100123.28;5005257;28;20045;-62
2022/06/01 11:34:43;;;;;;;7.22;3.45;;;;;;;24.21;51.42;100164.09;5012690;28;20084;-61
2022/06/01 11:37:26;;;;;;;7.85;2.75;;;;;;;24.01;51.61;100154.94;5010645;28;20613;-61
2022/06/01 11:40:01;;;;;;;7.28;3.50;;;;;;;23.68;51.52;100121.06;5012368;28;20049;-61
2022/06/01 11:42:33;;;;;;;7.32;3.13;;;;;;;23.85;52.34;100149.00;5012730;28;20026;-62
2022/06/01 11:45:15;;;;;;;9.60;3.28;;;;;;;23.74;51.66;100173.53;5012799;28;20036;-62
2022/06/01 11:47:49;;;;;;;7.20;2.60;;;;;;;23.42;51.54;100129.00;5012650;28;20109;-61
2022/06/01 11:50:42;;;;;;;5.75;2.53;;;;;;;23.60;51.14;100167.41;5012681;28;20022;-63
2022/06/01 11:53:12;;;;;;;4.72;2.28;;;;;;;23.43;52.10;100128.91;5012607;28;20036;-61
2022/06/01 11:55:38;;;;;;;4.00;2.30;;;;;;;23.76;51.76;100176.94;5027971;28;20026;-61
2022/06/01 11:58:03;;;;;;;3.40;2.40;;;;;;;23.73;52.08;100171.88;5016333;28;20087;-63
2022/06/01 12:00:47;;;;;;;3.42;2.38;;;;;;;23.50;51.84;100145.19;5019205;28;20442;-61
2022/06/01 12:03:15;;;;;;;4.25;2.20;;;;;;;23.55;52.05;100169.50;5019057;28;20129;-61
2022/06/01 12:06:13;;;;;;;4.00;2.15;;;;;;;23.13;52.24;100139.75;5019455;28;20108;-62